sensor_id;sensor_type;location;lat;lon;timestamp;temperature;humidity
79694;DHT22;69165;52.714;13.200;2023-11-21T06:00:56;4.90;99.90
79694;DHT22;69165;52.714;13.200;2023-11-21T06:02:57;4.90;99.90
79694;DHT22;69165;52.714;13.200;2023-11-21T06:04:59;4.90;99.90
79694;DHT22;69165;52.714;13.200;2023-11-21T06:07:00;4.80;99.90
79694;DHT22;69165;52.714;13.200;2023-11-21T06:09:01;4.80;99.90
79694;DHT22;69165;52.714;13.200;2023-11-21T06:11:03;4.80;99.90
79694;DHT22;69165;52.714;13.200;2023-11-21T06:13:04;4.80;99.90
79694;DHT22;69165;52.714;13.200;2023-11-21T06:15:05;4.80;99.90
79694;DHT22;69165;52.714;13.200;2023-11-21T06:17:07;4.80;99.90
79694;DHT22;69165;52.714;13.200;2023-11-21T06:19:09;4.70;99.90
79694;DHT22;69165;52.714;13.200;2023-11-21T06:21:10;4.80;99.90
79694;DHT22;69165;52.714;13.200;2023-11-21T06:23:11;4.70;99.90
79694;DHT22;69165;52.714;13.200;2023-11-21T06:25:13;4.70;99.90
79694;DHT22;69165;52.714;13.200;2023-11-21T06:27:14;4.70;99.90
79694;DHT22;69165;52.714;13.200;2023-11-21T06:29:16;4.70;99.90
79694;DHT22;69165;52.714;13.200;2023-11-21T06:31:18;4.70;99.90
79694;DHT22;69165;52.714;13.200;2023-11-21T06:33:19;4.70;99.90
79694;DHT22;69165;52.714;13.200;2023-11-21T06:35:21;4.70;99.90
79694;DHT22;69165;52.714;13.200;2023-11-21T06:37:22;4.70;99.90
79694;DHT22;69165;52.714;13.200;2023-11-21T06:39:23;4.70;99.90
79694;DHT22;69165;52.714;13.200;2023-11-21T06:41:25;4.70;99.90
79694;DHT22;69165;52.714;13.200;2023-11-21T06:43:26;4.70;99.90
79694;DHT22;69165;52.714;13.200;2023-11-21T06:45:28;4.60;99.90
79694;DHT22;69165;52.714;13.200;2023-11-21T06:47:29;4.60;99.90
79694;DHT22;69165;52.714;13.200;2023-11-21T06:49:31;4.60;99.90
79694;DHT22;69165;52.714;13.200;2023-11-21T06:51:32;4.60;99.90
79694;DHT22;69165;52.714;13.200;2023-11-21T06:53:33;4.60;99.90
79694;DHT22;69165;52.714;13.200;2023-11-21T06:55:35;4.60;99.90
79694;DHT22;69165;52.714;13.200;2023-11-21T06:57:36;4.60;99.90
79694;DHT22;69165;52.714;13.200;2023-11-21T06:59:37;4.60;99.90
79694;DHT22;69165;52.714;13.200;2023-11-21T07:01:38;4.60;99.90
79694;DHT22;69165;52.714;13.200;2023-11-21T07:03:40;4.60;99.90
79694;DHT22;69165;52.714;13.200;2023-11-21T07:05:42;4.60;99.90
79694;DHT22;69165;52.714;13.200;2023-11-21T07:07:43;4.60;99.90
79694;DHT22;69165;52.714;13.200;2023-11-21T07:09:44;4.60;99.90
79694;DHT22;69165;52.714;13.200;2023-11-21T07:11:45;4.60;99.90
79694;DHT22;69165;52.714;13.200;2023-11-21T07:13:47;4.60;99.90
79694;DHT22;69165;52.714;13.200;2023-11-21T07:15:48;4.60;99.90
79694;DHT22;69165;52.714;13.200;2023-11-21T07:17:50;4.60;99.90
79694;DHT22;69165;52.714;13.200;2023-11-21T07:19:51;4.60;99.90
79694;DHT22;69165;52.714;13.200;2023-11-21T07:21:52;4.60;99.90
79694;DHT22;69165;52.714;13.200;2023-11-21T07:23:54;4.60;99.90
79694;DHT22;69165;52.714;13.200;2023-11-21T07:25:55;4.60;99.90
79694;DHT22;69165;52.714;13.200;2023-11-21T07:27:56;4.60;99.90
79694;DHT22;69165;52.714;13.200;2023-11-21T07:29:57;4.60;99.90
79694;DHT22;69165;52.714;13.200;2023-11-21T07:31:59;4.60;99.90
79694;DHT22;69165;52.714;13.200;2023-11-21T07:34:00;4.70;99.90
79694;DHT22;69165;52.714;13.200;2023-11-21T07:36:01;4.60;99.90
79694;DHT22;69165;52.714;13.200;2023-11-21T07:38:02;4.60;99.90
79694;DHT22;69165;52.714;13.200;2023-11-21T07:40:04;4.70;99.90
79694;DHT22;69165;52.714;13.200;2023-11-21T07:42:06;4.70;99.90
79694;DHT22;69165;52.714;13.200;2023-11-21T07:44:07;4.70;99.90
79694;DHT22;69165;52.714;13.200;2023-11-21T07:46:09;4.70;99.90
79694;DHT22;69165;52.714;13.200;2023-11-21T07:48:10;4.70;99.90
79694;DHT22;69165;52.714;13.200;2023-11-21T07:50:11;4.60;99.90
79694;DHT22;69165;52.714;13.200;2023-11-21T07:52:13;4.60;99.90
79694;DHT22;69165;52.714;13.200;2023-11-21T07:54:14;4.60;99.90
79694;DHT22;69165;52.714;13.200;2023-11-21T07:56:15;4.60;99.90
79694;DHT22;69165;52.714;13.200;2023-11-21T07:58:16;4.60;99.90
79694;DHT22;69165;52.714;13.200;2023-11-21T08:00:18;4.60;99.90
79694;DHT22;69165;52.714;13.200;2023-11-21T08:02:19;4.60;99.90
79694;DHT22;69165;52.714;13.200;2023-11-21T08:04:20;4.60;99.90
79694;DHT22;69165;52.714;13.200;2023-11-21T08:06:22;4.60;99.90
79694;DHT22;69165;52.714;13.200;2023-11-21T08:08:23;4.60;99.90
79694;DHT22;69165;52.714;13.200;2023-11-21T08:10:24;4.50;99.90
79694;DHT22;69165;52.714;13.200;2023-11-21T08:12:25;4.60;99.90
79694;DHT22;69165;52.714;13.200;2023-11-21T08:14:27;4.60;99.90
79694;DHT22;69165;52.714;13.200;2023-11-21T08:16:29;4.60;99.90
79694;DHT22;69165;52.714;13.200;2023-11-21T08:18:30;4.60;99.90
79694;DHT22;69165;52.714;13.200;2023-11-21T08:20:31;4.60;99.90
79694;DHT22;69165;52.714;13.200;2023-11-21T08:22:33;4.60;99.90
79694;DHT22;69165;52.714;13.200;2023-11-21T08:24:34;4.50;99.90
79694;DHT22;69165;52.714;13.200;2023-11-21T08:26:36;4.50;99.90
79694;DHT22;69165;52.714;13.200;2023-11-21T08:28:37;4.50;99.90
79694;DHT22;69165;52.714;13.200;2023-11-21T08:30:38;4.50;99.90
79694;DHT22;69165;52.714;13.200;2023-11-21T08:32:39;4.50;99.90
79694;DHT22;69165;52.714;13.200;2023-11-21T08:34:41;4.50;99.90
79694;DHT22;69165;52.714;13.200;2023-11-21T08:36:42;4.50;99.90
79694;DHT22;69165;52.714;13.200;2023-11-21T08:38:43;4.50;99.90
79694;DHT22;69165;52.714;13.200;2023-11-21T08:40:45;4.50;99.90
79694;DHT22;69165;52.714;13.200;2023-11-21T08:42:47;4.50;99.90
79694;DHT22;69165;52.714;13.200;2023-11-21T08:44:49;4.40;99.90
79694;DHT22;69165;52.714;13.200;2023-11-21T08:46:51;4.40;99.90
79694;DHT22;69165;52.714;13.200;2023-11-21T08:48:52;4.40;99.90
79694;DHT22;69165;52.714;13.200;2023-11-21T08:50:53;4.50;99.90
79694;DHT22;69165;52.714;13.200;2023-11-21T08:52:54;4.40;99.90
79694;DHT22;69165;52.714;13.200;2023-11-21T08:54:56;4.40;99.90
79694;DHT22;69165;52.714;13.200;2023-11-21T08:56:57;4.40;99.90
79694;DHT22;69165;52.714;13.200;2023-11-21T08:59:00;4.50;99.90
79694;DHT22;69165;52.714;13.200;2023-11-21T09:01:02;4.50;99.90
79694;DHT22;69165;52.714;13.200;2023-11-21T09:03:03;4.50;99.90
79694;DHT22;69165;52.714;13.200;2023-11-21T09:05:05;4.50;99.90
79694;DHT22;69165;52.714;13.200;2023-11-21T09:07:06;4.40;99.90
79694;DHT22;69165;52.714;13.200;2023-11-21T09:09:07;4.40;99.90
79694;DHT22;69165;52.714;13.200;2023-11-21T09:11:08;4.40;99.90
79694;DHT22;69165;52.714;13.200;2023-11-21T09:13:10;4.40;99.90
79694;DHT22;69165;52.714;13.200;2023-11-21T09:15:11;4.30;99.90
79694;DHT22;69165;52.714;13.200;2023-11-21T09:17:13;4.30;99.90
79694;DHT22;69165;52.714;13.200;2023-11-21T09:19:15;4.20;99.90
79694;DHT22;69165;52.714;13.200;2023-11-21T09:21:17;4.30;99.90
79694;DHT22;69165;52.714;13.200;2023-11-21T09:23:19;4.20;99.90
79694;DHT22;69165;52.714;13.200;2023-11-21T09:25:20;4.20;99.90
79694;DHT22;69165;52.714;13.200;2023-11-21T09:27:21;4.20;99.90
79694;DHT22;69165;52.714;13.200;2023-11-21T09:29:23;4.20;99.90
79694;DHT22;69165;52.714;13.200;2023-11-21T09:31:24;4.20;99.90
79694;DHT22;69165;52.714;13.200;2023-11-21T09:33:25;4.20;99.90
79694;DHT22;69165;52.714;13.200;2023-11-21T09:35:27;4.20;99.90
79694;DHT22;69165;52.714;13.200;2023-11-21T09:37:29;4.20;99.90
79694;DHT22;69165;52.714;13.200;2023-11-21T09:39:30;4.30;99.90
79694;DHT22;69165;52.714;13.200;2023-11-21T09:41:34;4.20;99.90
79694;DHT22;69165;52.714;13.200;2023-11-21T09:43:33;4.20;99.90
79694;DHT22;69165;52.714;13.200;2023-11-21T09:45:35;4.20;99.90
79694;DHT22;69165;52.714;13.200;2023-11-21T09:47:37;4.20;99.90
79694;DHT22;69165;52.714;13.200;2023-11-21T09:49:37;4.20;99.90
79694;DHT22;69165;52.714;13.200;2023-11-21T09:51:39;4.20;99.90
79694;DHT22;69165;52.714;13.200;2023-11-21T09:53:41;4.20;99.90
79694;DHT22;69165;52.714;13.200;2023-11-21T09:55:42;4.20;99.90
79694;DHT22;69165;52.714;13.200;2023-11-21T09:57:44;4.20;99.90
79694;DHT22;69165;52.714;13.200;2023-11-21T09:59:45;4.20;99.90
79694;DHT22;69165;52.714;13.200;2023-11-21T10:01:46;4.20;99.90
79694;DHT22;69165;52.714;13.200;2023-11-21T10:03:48;4.20;99.90
79694;DHT22;69165;52.714;13.200;2023-11-21T10:05:50;4.20;99.90
79694;DHT22;69165;52.714;13.200;2023-11-21T10:07:50;4.20;99.90
79694;DHT22;69165;52.714;13.200;2023-11-21T10:09:51;4.20;99.90
79694;DHT22;69165;52.714;13.200;2023-11-21T10:11:53;4.30;99.90
79694;DHT22;69165;52.714;13.200;2023-11-21T10:13:55;4.30;99.90
79694;DHT22;69165;52.714;13.200;2023-11-21T10:15:59;4.30;99.90
79694;DHT22;69165;52.714;13.200;2023-11-21T10:18:01;4.30;99.90
79694;DHT22;69165;52.714;13.200;2023-11-21T10:20:01;4.30;99.90
79694;DHT22;69165;52.714;13.200;2023-11-21T10:22:03;4.20;99.90
79694;DHT22;69165;52.714;13.200;2023-11-21T10:24:05;4.20;99.90
79694;DHT22;69165;52.714;13.200;2023-11-21T10:26:06;4.20;99.90
79694;DHT22;69165;52.714;13.200;2023-11-21T10:28:08;4.20;99.90
79694;DHT22;69165;52.714;13.200;2023-11-21T10:30:10;4.20;99.90
79694;DHT22;69165;52.714;13.200;2023-11-21T10:32:12;4.20;99.90
79694;DHT22;69165;52.714;13.200;2023-11-21T10:34:15;4.20;99.90
79694;DHT22;69165;52.714;13.200;2023-11-21T10:36:28;4.20;99.90
79694;DHT22;69165;52.714;13.200;2023-11-21T10:38:32;4.20;99.90
79694;DHT22;69165;52.714;13.200;2023-11-21T10:40:31;4.20;99.90
79694;DHT22;69165;52.714;13.200;2023-11-21T10:42:32;4.20;99.90
79694;DHT22;69165;52.714;13.200;2023-11-21T10:44:33;4.20;99.90
79694;DHT22;69165;52.714;13.200;2023-11-21T10:46:34;4.20;99.90
79694;DHT22;69165;52.714;13.200;2023-11-21T10:48:36;4.10;99.90
79694;DHT22;69165;52.714;13.200;2023-11-21T10:50:37;4.20;99.90
79694;DHT22;69165;52.714;13.200;2023-11-21T10:52:40;4.20;99.90
79694;DHT22;69165;52.714;13.200;2023-11-21T10:54:41;4.20;99.90
79694;DHT22;69165;52.714;13.200;2023-11-21T10:56:43;4.20;99.90
79694;DHT22;69165;52.714;13.200;2023-11-21T10:58:45;4.20;99.90
79694;DHT22;69165;52.714;13.200;2023-11-21T11:00:47;4.10;99.90
79694;DHT22;69165;52.714;13.200;2023-11-21T11:02:51;4.10;99.90
79694;DHT22;69165;52.714;13.200;2023-11-21T11:04:51;4.10;99.90
79694;DHT22;69165;52.714;13.200;2023-11-21T11:06:54;4.10;99.90
79694;DHT22;69165;52.714;13.200;2023-11-21T11:08:55;4.10;99.90
79694;DHT22;69165;52.714;13.200;2023-11-21T11:10:57;4.00;99.90
79694;DHT22;69165;52.714;13.200;2023-11-21T11:12:58;4.10;99.90
79694;DHT22;69165;52.714;13.200;2023-11-21T11:14:59;4.10;99.90
79694;DHT22;69165;52.714;13.200;2023-11-21T11:17:01;4.00;99.90
79694;DHT22;69165;52.714;13.200;2023-11-21T11:19:03;4.00;99.90
79694;DHT22;69165;52.714;13.200;2023-11-21T11:21:07;4.00;99.90
79694;DHT22;69165;52.714;13.200;2023-11-21T11:23:30;3.90;99.90
79694;DHT22;69165;52.714;13.200;2023-11-21T11:27:40;3.90;99.90
79694;DHT22;69165;52.714;13.200;2023-11-21T11:29:48;3.80;99.90
79694;DHT22;69165;52.714;13.200;2023-11-21T11:31:53;3.80;99.90
79694;DHT22;69165;52.714;13.200;2023-11-21T11:33:54;3.80;99.90
79694;DHT22;69165;52.714;13.200;2023-11-21T11:36:00;3.80;99.90
79694;DHT22;69165;52.714;13.200;2023-11-21T11:37:58;3.80;99.90
79694;DHT22;69165;52.714;13.200;2023-11-21T11:39:59;3.80;99.90
79694;DHT22;69165;52.714;13.200;2023-11-21T11:42:01;3.80;99.90
79694;DHT22;69165;52.714;13.200;2023-11-21T11:44:02;3.80;99.90
79694;DHT22;69165;52.714;13.200;2023-11-21T11:46:04;3.80;99.90
79694;DHT22;69165;52.714;13.200;2023-11-21T11:48:05;3.80;99.90
79694;DHT22;69165;52.714;13.200;2023-11-21T11:50:08;3.80;99.90
79694;DHT22;69165;52.714;13.200;2023-11-21T11:54:15;3.90;99.90
79694;DHT22;69165;52.714;13.200;2023-11-21T11:56:19;3.90;99.90
79694;DHT22;69165;52.714;13.200;2023-11-21T11:58:20;3.80;99.90
79694;DHT22;69165;52.714;13.200;2023-11-21T12:00:22;3.80;99.90
79694;DHT22;69165;52.714;13.200;2023-11-21T12:02:26;3.80;99.90
79694;DHT22;69165;52.714;13.200;2023-11-21T12:04:27;3.80;99.90
79694;DHT22;69165;52.714;13.200;2023-11-21T12:06:33;3.90;99.90
79694;DHT22;69165;52.714;13.200;2023-11-21T12:08:34;3.90;99.90
79694;DHT22;69165;52.714;13.200;2023-11-21T12:10:36;3.90;99.90
79694;DHT22;69165;52.714;13.200;2023-11-21T12:12:37;4.00;99.90
79694;DHT22;69165;52.714;13.200;2023-11-21T12:14:39;3.90;99.90
79694;DHT22;69165;52.714;13.200;2023-11-21T12:16:40;3.90;99.90
79694;DHT22;69165;52.714;13.200;2023-11-21T12:18:42;3.80;99.90
79694;DHT22;69165;52.714;13.200;2023-11-21T12:20:43;3.80;99.90
79694;DHT22;69165;52.714;13.200;2023-11-21T12:22:48;3.80;99.90
79694;DHT22;69165;52.714;13.200;2023-11-21T12:24:48;3.80;99.90
79694;DHT22;69165;52.714;13.200;2023-11-21T12:26:50;3.80;99.90
79694;DHT22;69165;52.714;13.200;2023-11-21T12:28:53;3.70;99.90
79694;DHT22;69165;52.714;13.200;2023-11-21T12:30:57;3.60;99.90
79694;DHT22;69165;52.714;13.200;2023-11-21T12:32:59;3.60;99.90
79694;DHT22;69165;52.714;13.200;2023-11-21T12:34:59;3.60;99.90
79694;DHT22;69165;52.714;13.200;2023-11-21T12:37:01;3.50;99.90
79694;DHT22;69165;52.714;13.200;2023-11-21T12:39:03;3.50;99.90
79694;DHT22;69165;52.714;13.200;2023-11-21T12:41:04;3.50;99.90
79694;DHT22;69165;52.714;13.200;2023-11-21T12:43:06;3.50;99.90
79694;DHT22;69165;52.714;13.200;2023-11-21T12:45:09;3.40;99.90
79694;DHT22;69165;52.714;13.200;2023-11-21T12:47:16;3.50;99.90
79694;DHT22;69165;52.714;13.200;2023-11-21T12:49:14;3.40;99.90
79694;DHT22;69165;52.714;13.200;2023-11-21T12:51:15;3.40;99.90
79694;DHT22;69165;52.714;13.200;2023-11-21T12:53:17;3.40;99.90
79694;DHT22;69165;52.714;13.200;2023-11-21T12:55:20;3.30;99.90
79694;DHT22;69165;52.714;13.200;2023-11-21T12:57:20;3.30;99.90
79694;DHT22;69165;52.714;13.200;2023-11-21T12:59:21;3.30;99.90
79694;DHT22;69165;52.714;13.200;2023-11-21T13:01:25;3.30;99.90
79694;DHT22;69165;52.714;13.200;2023-11-21T13:03:25;3.30;99.90
79694;DHT22;69165;52.714;13.200;2023-11-21T13:05:27;3.30;99.90
79694;DHT22;69165;52.714;13.200;2023-11-21T13:07:28;3.20;99.90
79694;DHT22;69165;52.714;13.200;2023-11-21T13:09:29;3.20;99.90
79694;DHT22;69165;52.714;13.200;2023-11-21T13:11:34;3.30;99.90
79694;DHT22;69165;52.714;13.200;2023-11-21T13:13:32;3.30;99.90
79694;DHT22;69165;52.714;13.200;2023-11-21T13:15:33;3.30;99.90
79694;DHT22;69165;52.714;13.200;2023-11-21T13:17:36;3.20;99.90
79694;DHT22;69165;52.714;13.200;2023-11-21T13:19:37;3.30;99.90
79694;DHT22;69165;52.714;13.200;2023-11-21T13:21:39;3.30;99.90
79694;DHT22;69165;52.714;13.200;2023-11-21T13:23:41;3.20;99.90
79694;DHT22;69165;52.714;13.200;2023-11-21T13:25:43;3.20;99.90
79694;DHT22;69165;52.714;13.200;2023-11-21T13:27:44;3.10;99.90
79694;DHT22;69165;52.714;13.200;2023-11-21T13:29:45;3.10;99.90
79694;DHT22;69165;52.714;13.200;2023-11-21T13:31:47;3.10;99.90
79694;DHT22;69165;52.714;13.200;2023-11-21T13:33:48;3.10;99.90
79694;DHT22;69165;52.714;13.200;2023-11-21T13:35:52;3.10;99.90
79694;DHT22;69165;52.714;13.200;2023-11-21T13:37:53;3.10;99.90
79694;DHT22;69165;52.714;13.200;2023-11-21T13:39:55;3.10;99.90
79694;DHT22;69165;52.714;13.200;2023-11-21T13:41:57;3.00;99.90
79694;DHT22;69165;52.714;13.200;2023-11-21T13:43:59;3.00;99.90
79694;DHT22;69165;52.714;13.200;2023-11-21T13:46:11;3.00;99.90
79694;DHT22;69165;52.714;13.200;2023-11-21T13:48:15;3.00;99.90
79694;DHT22;69165;52.714;13.200;2023-11-21T13:50:17;3.00;99.90
79694;DHT22;69165;52.714;13.200;2023-11-21T13:52:18;2.90;99.90
79694;DHT22;69165;52.714;13.200;2023-11-21T13:54:20;3.00;99.90
79694;DHT22;69165;52.714;13.200;2023-11-21T13:56:23;3.00;99.90
79694;DHT22;69165;52.714;13.200;2023-11-21T13:58:24;2.90;99.90
79694;DHT22;69165;52.714;13.200;2023-11-21T14:00:26;2.90;99.90
79694;DHT22;69165;52.714;13.200;2023-11-21T14:02:33;2.90;99.90
79694;DHT22;69165;52.714;13.200;2023-11-21T14:04:34;2.90;99.90
79694;DHT22;69165;52.714;13.200;2023-11-21T14:06:35;2.90;99.90
79694;DHT22;69165;52.714;13.200;2023-11-21T14:08:38;2.90;99.90
79694;DHT22;69165;52.714;13.200;2023-11-21T14:10:39;2.90;99.90
79694;DHT22;69165;52.714;13.200;2023-11-21T14:12:42;2.90;99.90
79694;DHT22;69165;52.714;13.200;2023-11-21T14:14:43;2.90;99.90
79694;DHT22;69165;52.714;13.200;2023-11-21T14:16:44;2.90;99.90
79694;DHT22;69165;52.714;13.200;2023-11-21T14:18:45;2.80;99.90
79694;DHT22;69165;52.714;13.200;2023-11-21T14:20:52;2.80;99.90
79694;DHT22;69165;52.714;13.200;2023-11-21T14:22:54;2.80;99.90
79694;DHT22;69165;52.714;13.200;2023-11-21T14:24:55;2.80;99.90
79694;DHT22;69165;52.714;13.200;2023-11-21T14:26:56;2.80;99.90
79694;DHT22;69165;52.714;13.200;2023-11-21T14:28:57;2.80;99.90
79694;DHT22;69165;52.714;13.200;2023-11-21T14:30:59;2.70;99.90
79694;DHT22;69165;52.714;13.200;2023-11-21T14:33:01;2.70;99.90
79694;DHT22;69165;52.714;13.200;2023-11-21T14:35:02;2.70;99.90
79694;DHT22;69165;52.714;13.200;2023-11-21T14:37:04;2.70;99.90
79694;DHT22;69165;52.714;13.200;2023-11-21T14:39:05;2.70;99.90
79694;DHT22;69165;52.714;13.200;2023-11-21T14:41:07;2.70;99.90
79694;DHT22;69165;52.714;13.200;2023-11-21T14:43:08;2.70;99.90
79694;DHT22;69165;52.714;13.200;2023-11-21T14:45:10;2.70;99.90
79694;DHT22;69165;52.714;13.200;2023-11-21T14:47:12;2.70;99.90
79694;DHT22;69165;52.714;13.200;2023-11-21T14:49:14;2.60;99.90
79694;DHT22;69165;52.714;13.200;2023-11-21T14:51:19;2.60;99.90
79694;DHT22;69165;52.714;13.200;2023-11-21T14:53:29;2.60;99.90
79694;DHT22;69165;52.714;13.200;2023-11-21T14:55:36;2.60;99.90
79694;DHT22;69165;52.714;13.200;2023-11-21T14:57:43;2.60;99.90
79694;DHT22;69165;52.714;13.200;2023-11-21T14:59:45;2.60;99.90
79694;DHT22;69165;52.714;13.200;2023-11-21T15:01:52;2.60;99.90
79694;DHT22;69165;52.714;13.200;2023-11-21T15:03:54;2.60;99.90
79694;DHT22;69165;52.714;13.200;2023-11-21T15:05:55;2.60;99.90
79694;DHT22;69165;52.714;13.200;2023-11-21T15:07:57;2.60;99.90
79694;DHT22;69165;52.714;13.200;2023-11-21T15:09:59;2.60;99.90
79694;DHT22;69165;52.714;13.200;2023-11-21T15:12:00;2.60;99.90
79694;DHT22;69165;52.714;13.200;2023-11-21T15:14:08;2.60;99.90
79694;DHT22;69165;52.714;13.200;2023-11-21T15:16:09;2.50;99.90
79694;DHT22;69165;52.714;13.200;2023-11-21T15:18:11;2.50;99.90
79694;DHT22;69165;52.714;13.200;2023-11-21T15:20:12;2.50;99.90
79694;DHT22;69165;52.714;13.200;2023-11-21T15:22:14;2.50;99.90
79694;DHT22;69165;52.714;13.200;2023-11-21T15:24:15;2.50;99.90
79694;DHT22;69165;52.714;13.200;2023-11-21T15:26:16;2.50;99.90
79694;DHT22;69165;52.714;13.200;2023-11-21T15:28:17;2.50;99.90
79694;DHT22;69165;52.714;13.200;2023-11-21T15:30:19;2.50;99.90
79694;DHT22;69165;52.714;13.200;2023-11-21T15:32:21;2.50;99.90
79694;DHT22;69165;52.714;13.200;2023-11-21T15:34:22;2.50;99.90
79694;DHT22;69165;52.714;13.200;2023-11-21T15:36:23;2.50;99.90
79694;DHT22;69165;52.714;13.200;2023-11-21T15:38:24;2.50;99.90
79694;DHT22;69165;52.714;13.200;2023-11-21T15:40:26;2.40;99.90
79694;DHT22;69165;52.714;13.200;2023-11-21T15:42:27;2.40;99.90
79694;DHT22;69165;52.714;13.200;2023-11-21T15:44:29;2.40;99.90
79694;DHT22;69165;52.714;13.200;2023-11-21T15:46:31;2.40;99.90
79694;DHT22;69165;52.714;13.200;2023-11-21T15:48:32;2.40;99.90
79694;DHT22;69165;52.714;13.200;2023-11-21T15:50:33;2.40;99.90
79694;DHT22;69165;52.714;13.200;2023-11-21T15:52:34;2.40;99.90
79694;DHT22;69165;52.714;13.200;2023-11-21T15:54:36;2.40;99.90
79694;DHT22;69165;52.714;13.200;2023-11-21T15:56:38;2.40;99.90
79694;DHT22;69165;52.714;13.200;2023-11-21T15:58:39;2.30;99.90
79694;DHT22;69165;52.714;13.200;2023-11-21T16:00:41;2.40;99.90
79694;DHT22;69165;52.714;13.200;2023-11-21T16:02:43;2.40;99.90
79694;DHT22;69165;52.714;13.200;2023-11-21T16:04:44;2.40;99.90
79694;DHT22;69165;52.714;13.200;2023-11-21T16:06:46;2.30;99.90
79694;DHT22;69165;52.714;13.200;2023-11-21T16:08:48;2.30;99.90
79694;DHT22;69165;52.714;13.200;2023-11-21T16:10:49;2.20;99.90
79694;DHT22;69165;52.714;13.200;2023-11-21T16:12:51;2.20;99.90
79694;DHT22;69165;52.714;13.200;2023-11-21T16:14:52;2.20;99.90
79694;DHT22;69165;52.714;13.200;2023-11-21T16:16:54;2.20;99.90
79694;DHT22;69165;52.714;13.200;2023-11-21T16:18:55;2.20;99.90
79694;DHT22;69165;52.714;13.200;2023-11-21T16:20:57;2.10;99.90
79694;DHT22;69165;52.714;13.200;2023-11-21T16:22:58;2.20;99.90
79694;DHT22;69165;52.714;13.200;2023-11-21T16:24:59;2.20;99.90
79694;DHT22;69165;52.714;13.200;2023-11-21T16:27:01;2.20;99.90
79694;DHT22;69165;52.714;13.200;2023-11-21T16:29:03;2.20;99.90
79694;DHT22;69165;52.714;13.200;2023-11-21T16:31:04;2.20;99.90
79694;DHT22;69165;52.714;13.200;2023-11-21T16:33:06;2.20;99.90
79694;DHT22;69165;52.714;13.200;2023-11-21T16:35:07;2.10;99.90
79694;DHT22;69165;52.714;13.200;2023-11-21T16:37:09;2.10;99.90
79694;DHT22;69165;52.714;13.200;2023-11-21T16:39:11;2.10;99.90
79694;DHT22;69165;52.714;13.200;2023-11-21T16:41:13;2.10;99.90
79694;DHT22;69165;52.714;13.200;2023-11-21T16:43:14;2.10;99.90
79694;DHT22;69165;52.714;13.200;2023-11-21T16:45:15;2.10;99.90
79694;DHT22;69165;52.714;13.200;2023-11-21T16:47:17;2.10;99.90
79694;DHT22;69165;52.714;13.200;2023-11-21T16:49:19;2.10;99.90
79694;DHT22;69165;52.714;13.200;2023-11-21T16:51:20;2.10;99.90
79694;DHT22;69165;52.714;13.200;2023-11-21T16:53:22;2.10;99.90
79694;DHT22;69165;52.714;13.200;2023-11-21T16:55:23;2.10;99.90
79694;DHT22;69165;52.714;13.200;2023-11-21T16:57:26;2.00;99.90
79694;DHT22;69165;52.714;13.200;2023-11-21T16:59:27;2.00;99.90
79694;DHT22;69165;52.714;13.200;2023-11-21T17:01:28;2.10;99.90
79694;DHT22;69165;52.714;13.200;2023-11-21T17:03:29;2.00;99.90
79694;DHT22;69165;52.714;13.200;2023-11-21T17:05:31;2.00;99.90
79694;DHT22;69165;52.714;13.200;2023-11-21T17:07:33;2.00;99.90
79694;DHT22;69165;52.714;13.200;2023-11-21T17:09:34;2.00;99.90
79694;DHT22;69165;52.714;13.200;2023-11-21T17:11:36;2.00;99.90
79694;DHT22;69165;52.714;13.200;2023-11-21T17:13:37;2.00;99.90
79694;DHT22;69165;52.714;13.200;2023-11-21T17:15:38;2.00;99.90
79694;DHT22;69165;52.714;13.200;2023-11-21T17:17:39;2.00;99.90
79694;DHT22;69165;52.714;13.200;2023-11-21T17:19:40;2.00;99.90
79694;DHT22;69165;52.714;13.200;2023-11-21T17:21:42;2.00;99.90
79694;DHT22;69165;52.714;13.200;2023-11-21T17:23:43;2.00;99.90
79694;DHT22;69165;52.714;13.200;2023-11-21T17:25:45;2.00;99.90
79694;DHT22;69165;52.714;13.200;2023-11-21T17:27:46;2.00;99.90
79694;DHT22;69165;52.714;13.200;2023-11-21T17:29:48;2.00;99.90
79694;DHT22;69165;52.714;13.200;2023-11-21T17:31:49;2.00;99.90
79694;DHT22;69165;52.714;13.200;2023-11-21T17:33:50;2.00;99.90
79694;DHT22;69165;52.714;13.200;2023-11-21T17:35:51;2.00;99.90
79694;DHT22;69165;52.714;13.200;2023-11-21T17:37:53;1.90;99.90
79694;DHT22;69165;52.714;13.200;2023-11-21T17:39:55;1.90;99.90
79694;DHT22;69165;52.714;13.200;2023-11-21T17:41:56;1.90;99.90
79694;DHT22;69165;52.714;13.200;2023-11-21T17:43:57;1.90;99.90
79694;DHT22;69165;52.714;13.200;2023-11-21T17:45:58;1.90;99.90
79694;DHT22;69165;52.714;13.200;2023-11-21T17:48:00;1.90;99.90
79694;DHT22;69165;52.714;13.200;2023-11-21T17:50:01;1.90;99.90
79694;DHT22;69165;52.714;13.200;2023-11-21T17:52:02;1.90;99.90
79694;DHT22;69165;52.714;13.200;2023-11-21T17:54:04;1.90;99.90
79694;DHT22;69165;52.714;13.200;2023-11-21T17:56:06;1.90;99.90
79694;DHT22;69165;52.714;13.200;2023-11-21T17:58:07;1.90;99.90
79694;DHT22;69165;52.714;13.200;2023-11-21T18:00:09;1.90;99.90
79694;DHT22;69165;52.714;13.200;2023-11-21T18:02:11;1.90;99.90
79694;DHT22;69165;52.714;13.200;2023-11-21T18:04:12;1.90;99.90
79694;DHT22;69165;52.714;13.200;2023-11-21T18:06:14;1.90;99.90
79694;DHT22;69165;52.714;13.200;2023-11-21T18:08:15;1.80;99.90
79694;DHT22;69165;52.714;13.200;2023-11-21T18:10:17;1.80;99.90
79694;DHT22;69165;52.714;13.200;2023-11-21T18:12:18;1.80;99.90
79694;DHT22;69165;52.714;13.200;2023-11-21T18:14:19;1.80;99.90
79694;DHT22;69165;52.714;13.200;2023-11-21T18:16:20;1.80;99.90
79694;DHT22;69165;52.714;13.200;2023-11-21T18:18:22;1.90;99.90
79694;DHT22;69165;52.714;13.200;2023-11-21T18:20:23;1.80;99.90
79694;DHT22;69165;52.714;13.200;2023-11-21T18:22:25;1.80;99.90
79694;DHT22;69165;52.714;13.200;2023-11-21T18:24:26;1.80;99.90
79694;DHT22;69165;52.714;13.200;2023-11-21T18:26:28;1.80;99.90
79694;DHT22;69165;52.714;13.200;2023-11-21T18:28:29;1.80;99.90
79694;DHT22;69165;52.714;13.200;2023-11-21T18:30:32;1.80;99.90
79694;DHT22;69165;52.714;13.200;2023-11-21T18:32:33;1.80;99.90
79694;DHT22;69165;52.714;13.200;2023-11-21T18:34:35;1.80;99.90
79694;DHT22;69165;52.714;13.200;2023-11-21T18:36:37;1.80;99.90
79694;DHT22;69165;52.714;13.200;2023-11-21T18:38:38;1.80;99.90
79694;DHT22;69165;52.714;13.200;2023-11-21T18:40:40;1.80;99.90
79694;DHT22;69165;52.714;13.200;2023-11-21T18:42:41;1.80;99.90
79694;DHT22;69165;52.714;13.200;2023-11-21T18:44:43;1.80;99.90
79694;DHT22;69165;52.714;13.200;2023-11-21T18:46:44;1.80;99.90
79694;DHT22;69165;52.714;13.200;2023-11-21T18:48:45;1.80;99.90
79694;DHT22;69165;52.714;13.200;2023-11-21T18:50:46;1.80;99.90
79694;DHT22;69165;52.714;13.200;2023-11-21T18:52:47;1.80;99.90